sensor_id;sensor_type;location;lat;lon;timestamp;P1;durP1;ratioP1;P2;durP2;ratioP2
46613;SDS011;32338;50.430;6.806;2023-05-20T00:00:33;1.55;;;1.02;;
46613;SDS011;32338;50.430;6.806;2023-05-20T00:03:00;2.92;;;0.98;;
46613;SDS011;32338;50.430;6.806;2023-05-20T00:05:26;3.72;;;1.00;;
46613;SDS011;32338;50.430;6.806;2023-05-20T00:07:53;7.25;;;1.35;;
46613;SDS011;32338;50.430;6.806;2023-05-20T00:10:20;2.90;;;1.00;;
46613;SDS011;32338;50.430;6.806;2023-05-20T00:12:46;1.85;;;1.02;;
46613;SDS011;32338;50.430;6.806;2023-05-20T00:15:14;4.40;;;1.10;;
46613;SDS011;32338;50.430;6.806;2023-05-20T00:17:41;1.60;;;1.10;;
46613;SDS011;32338;50.430;6.806;2023-05-20T00:20:07;2.53;;;0.90;;
46613;SDS011;32338;50.430;6.806;2023-05-20T00:22:34;5.90;;;1.15;;
46613;SDS011;32338;50.430;6.806;2023-05-20T00:25:01;2.55;;;1.00;;
46613;SDS011;32338;50.430;6.806;2023-05-20T00:27:27;4.05;;;1.10;;
46613;SDS011;32338;50.430;6.806;2023-05-20T00:29:54;2.80;;;1.20;;
46613;SDS011;32338;50.430;6.806;2023-05-20T00:32:23;1.48;;;0.82;;
46613;SDS011;32338;50.430;6.806;2023-05-20T00:34:59;4.03;;;1.40;;
46613;SDS011;32338;50.430;6.806;2023-05-20T00:37:26;1.75;;;1.10;;
46613;SDS011;32338;50.430;6.806;2023-05-20T00:39:53;1.75;;;1.30;;
46613;SDS011;32338;50.430;6.806;2023-05-20T00:42:19;3.42;;;1.00;;
46613;SDS011;32338;50.430;6.806;2023-05-20T00:44:46;2.47;;;1.13;;
46613;SDS011;32338;50.430;6.806;2023-05-20T00:47:13;5.78;;;1.00;;
46613;SDS011;32338;50.430;6.806;2023-05-20T00:49:41;1.63;;;1.02;;
46613;SDS011;32338;50.430;6.806;2023-05-20T00:52:08;1.90;;;1.05;;
46613;SDS011;32338;50.430;6.806;2023-05-20T00:54:35;3.38;;;1.05;;
46613;SDS011;32338;50.430;6.806;2023-05-20T00:57:02;3.65;;;1.20;;
46613;SDS011;32338;50.430;6.806;2023-05-20T00:59:31;3.45;;;1.30;;
46613;SDS011;32338;50.430;6.806;2023-05-20T01:01:58;2.13;;;1.10;;
46613;SDS011;32338;50.430;6.806;2023-05-20T01:04:25;4.30;;;1.25;;
46613;SDS011;32338;50.430;6.806;2023-05-20T01:06:53;3.38;;;1.23;;
46613;SDS011;32338;50.430;6.806;2023-05-20T01:09:21;2.78;;;1.10;;
46613;SDS011;32338;50.430;6.806;2023-05-20T01:11:49;5.10;;;1.00;;
46613;SDS011;32338;50.430;6.806;2023-05-20T01:14:21;4.28;;;1.10;;
46613;SDS011;32338;50.430;6.806;2023-05-20T01:16:52;1.50;;;1.20;;
46613;SDS011;32338;50.430;6.806;2023-05-20T01:19:25;1.98;;;1.20;;
46613;SDS011;32338;50.430;6.806;2023-05-20T01:21:59;5.63;;;1.25;;
46613;SDS011;32338;50.430;6.806;2023-05-20T01:24:29;2.83;;;1.45;;
46613;SDS011;32338;50.430;6.806;2023-05-20T01:26:56;1.33;;;1.00;;
46613;SDS011;32338;50.430;6.806;2023-05-20T01:29:23;5.43;;;1.33;;
46613;SDS011;32338;50.430;6.806;2023-05-20T01:31:50;4.22;;;1.23;;
46613;SDS011;32338;50.430;6.806;2023-05-20T01:34:18;1.48;;;1.20;;
46613;SDS011;32338;50.430;6.806;2023-05-20T01:36:45;4.68;;;1.60;;
46613;SDS011;32338;50.430;6.806;2023-05-20T01:39:12;1.48;;;1.00;;
46613;SDS011;32338;50.430;6.806;2023-05-20T01:41:40;4.43;;;1.83;;
46613;SDS011;32338;50.430;6.806;2023-05-20T01:44:08;2.15;;;1.17;;
46613;SDS011;32338;50.430;6.806;2023-05-20T01:46:34;3.42;;;1.02;;
46613;SDS011;32338;50.430;6.806;2023-05-20T01:49:01;2.72;;;1.33;;
46613;SDS011;32338;50.430;6.806;2023-05-20T01:51:28;1.70;;;1.45;;
46613;SDS011;32338;50.430;6.806;2023-05-20T01:53:57;1.25;;;1.08;;
46613;SDS011;32338;50.430;6.806;2023-05-20T01:56:24;3.25;;;1.10;;
46613;SDS011;32338;50.430;6.806;2023-05-20T01:58:52;2.28;;;1.20;;
46613;SDS011;32338;50.430;6.806;2023-05-20T02:01:19;2.72;;;1.25;;
46613;SDS011;32338;50.430;6.806;2023-05-20T02:03:45;2.15;;;1.67;;
46613;SDS011;32338;50.430;6.806;2023-05-20T02:06:12;1.85;;;1.23;;
46613;SDS011;32338;50.430;6.806;2023-05-20T02:08:38;3.72;;;1.15;;
46613;SDS011;32338;50.430;6.806;2023-05-20T02:11:05;2.55;;;1.38;;
46613;SDS011;32338;50.430;6.806;2023-05-20T02:13:31;1.92;;;1.50;;
46613;SDS011;32338;50.430;6.806;2023-05-20T02:15:59;1.35;;;1.25;;
46613;SDS011;32338;50.430;6.806;2023-05-20T02:18:26;3.70;;;1.30;;
46613;SDS011;32338;50.430;6.806;2023-05-20T02:20:52;3.42;;;1.20;;
46613;SDS011;32338;50.430;6.806;2023-05-20T02:23:19;2.13;;;1.13;;
46613;SDS011;32338;50.430;6.806;2023-05-20T02:25:45;6.60;;;1.27;;
46613;SDS011;32338;50.430;6.806;2023-05-20T02:28:12;3.45;;;1.30;;
46613;SDS011;32338;50.430;6.806;2023-05-20T02:30:39;1.98;;;1.50;;
46613;SDS011;32338;50.430;6.806;2023-05-20T02:33:07;6.85;;;1.30;;
46613;SDS011;32338;50.430;6.806;2023-05-20T02:35:34;4.78;;;1.17;;
46613;SDS011;32338;50.430;6.806;2023-05-20T02:38:01;7.15;;;1.40;;
46613;SDS011;32338;50.430;6.806;2023-05-20T02:40:28;6.07;;;1.10;;
46613;SDS011;32338;50.430;6.806;2023-05-20T02:42:54;1.73;;;1.13;;
46613;SDS011;32338;50.430;6.806;2023-05-20T02:45:21;1.70;;;1.20;;
46613;SDS011;32338;50.430;6.806;2023-05-20T02:47:47;2.75;;;1.20;;
46613;SDS011;32338;50.430;6.806;2023-05-20T02:50:15;3.33;;;1.40;;
46613;SDS011;32338;50.430;6.806;2023-05-20T02:52:42;1.40;;;1.30;;
46613;SDS011;32338;50.430;6.806;2023-05-20T02:55:09;3.72;;;1.42;;
46613;SDS011;32338;50.430;6.806;2023-05-20T02:57:37;2.03;;;1.40;;
46613;SDS011;32338;50.430;6.806;2023-05-20T03:00:04;2.35;;;1.30;;
46613;SDS011;32338;50.430;6.806;2023-05-20T03:02:32;1.48;;;1.27;;
46613;SDS011;32338;50.430;6.806;2023-05-20T03:04:59;4.30;;;1.50;;
46613;SDS011;32338;50.430;6.806;2023-05-20T03:07:27;3.03;;;1.38;;
46613;SDS011;32338;50.430;6.806;2023-05-20T03:09:54;3.47;;;1.35;;
46613;SDS011;32338;50.430;6.806;2023-05-20T03:12:22;5.00;;;1.50;;
46613;SDS011;32338;50.430;6.806;2023-05-20T03:14:50;5.78;;;1.27;;
46613;SDS011;32338;50.430;6.806;2023-05-20T03:17:19;2.85;;;1.35;;
46613;SDS011;32338;50.430;6.806;2023-05-20T03:19:45;2.03;;;1.73;;
46613;SDS011;32338;50.430;6.806;2023-05-20T03:22:12;1.73;;;1.15;;
46613;SDS011;32338;50.430;6.806;2023-05-20T03:24:40;3.03;;;1.30;;
46613;SDS011;32338;50.430;6.806;2023-05-20T03:27:08;1.20;;;1.02;;
46613;SDS011;32338;50.430;6.806;2023-05-20T03:29:34;4.10;;;1.17;;
46613;SDS011;32338;50.430;6.806;2023-05-20T03:32:01;1.40;;;1.30;;
46613;SDS011;32338;50.430;6.806;2023-05-20T03:34:28;1.77;;;1.27;;
46613;SDS011;32338;50.430;6.806;2023-05-20T03:36:55;2.67;;;1.45;;
46613;SDS011;32338;50.430;6.806;2023-05-20T03:39:24;2.90;;;1.30;;
46613;SDS011;32338;50.430;6.806;2023-05-20T03:41:52;2.75;;;1.50;;
46613;SDS011;32338;50.430;6.806;2023-05-20T03:44:18;1.80;;;1.50;;
46613;SDS011;32338;50.430;6.806;2023-05-20T03:46:45;3.47;;;1.30;;
46613;SDS011;32338;50.430;6.806;2023-05-20T03:49:11;1.88;;;1.20;;
46613;SDS011;32338;50.430;6.806;2023-05-20T03:51:38;6.22;;;1.40;;
46613;SDS011;32338;50.430;6.806;2023-05-20T03:54:04;5.35;;;1.40;;
46613;SDS011;32338;50.430;6.806;2023-05-20T03:56:31;1.45;;;1.30;;
46613;SDS011;32338;50.430;6.806;2023-05-20T03:58:59;5.13;;;1.60;;
46613;SDS011;32338;50.430;6.806;2023-05-20T04:01:26;4.65;;;1.63;;
46613;SDS011;32338;50.430;6.806;2023-05-20T04:03:52;1.58;;;1.10;;
46613;SDS011;32338;50.430;6.806;2023-05-20T04:06:19;2.42;;;1.30;;
46613;SDS011;32338;50.430;6.806;2023-05-20T04:08:46;4.30;;;1.85;;
46613;SDS011;32338;50.430;6.806;2023-05-20T04:11:13;3.70;;;1.10;;
46613;SDS011;32338;50.430;6.806;2023-05-20T04:13:39;1.88;;;1.42;;
46613;SDS011;32338;50.430;6.806;2023-05-20T04:16:07;2.55;;;1.33;;
46613;SDS011;32338;50.430;6.806;2023-05-20T04:18:34;2.33;;;1.30;;
46613;SDS011;32338;50.430;6.806;2023-05-20T04:21:02;1.75;;;1.00;;
46613;SDS011;32338;50.430;6.806;2023-05-20T04:23:29;1.83;;;1.30;;
46613;SDS011;32338;50.430;6.806;2023-05-20T04:25:56;2.33;;;1.38;;
46613;SDS011;32338;50.430;6.806;2023-05-20T04:28:26;4.22;;;1.27;;
46613;SDS011;32338;50.430;6.806;2023-05-20T04:30:58;2.30;;;1.13;;
46613;SDS011;32338;50.430;6.806;2023-05-20T04:33:26;3.97;;;1.20;;
46613;SDS011;32338;50.430;6.806;2023-05-20T04:35:53;10.65;;;1.50;;
46613;SDS011;32338;50.430;6.806;2023-05-20T04:38:22;1.60;;;1.30;;
46613;SDS011;32338;50.430;6.806;2023-05-20T04:40:53;2.10;;;1.45;;
46613;SDS011;32338;50.430;6.806;2023-05-20T04:43:22;2.63;;;1.20;;
46613;SDS011;32338;50.430;6.806;2023-05-20T04:45:48;3.58;;;1.10;;
46613;SDS011;32338;50.430;6.806;2023-05-20T04:48:17;7.18;;;1.35;;
46613;SDS011;32338;50.430;6.806;2023-05-20T04:50:45;2.35;;;1.20;;
46613;SDS011;32338;50.430;6.806;2023-05-20T04:53:12;3.80;;;1.17;;
46613;SDS011;32338;50.430;6.806;2023-05-20T04:55:39;2.05;;;1.33;;
46613;SDS011;32338;50.430;6.806;2023-05-20T04:58:07;3.42;;;1.35;;
46613;SDS011;32338;50.430;6.806;2023-05-20T05:00:39;1.63;;;1.15;;
46613;SDS011;32338;50.430;6.806;2023-05-20T05:03:05;5.15;;;1.30;;
46613;SDS011;32338;50.430;6.806;2023-05-20T05:05:33;1.50;;;1.35;;
46613;SDS011;32338;50.430;6.806;2023-05-20T05:08:01;1.95;;;1.75;;
46613;SDS011;32338;50.430;6.806;2023-05-20T05:10:29;3.80;;;1.90;;
46613;SDS011;32338;50.430;6.806;2023-05-20T05:12:55;3.28;;;1.42;;
46613;SDS011;32338;50.430;6.806;2023-05-20T05:15:22;7.53;;;1.67;;
46613;SDS011;32338;50.430;6.806;2023-05-20T05:17:49;2.13;;;1.77;;
46613;SDS011;32338;50.430;6.806;2023-05-20T05:20:16;6.15;;;2.00;;
46613;SDS011;32338;50.430;6.806;2023-05-20T05:22:42;6.10;;;2.03;;
46613;SDS011;32338;50.430;6.806;2023-05-20T05:25:11;4.45;;;1.90;;
46613;SDS011;32338;50.430;6.806;2023-05-20T05:27:38;3.33;;;1.77;;
46613;SDS011;32338;50.430;6.806;2023-05-20T05:30:05;2.33;;;1.63;;
46613;SDS011;32338;50.430;6.806;2023-05-20T05:32:32;1.73;;;1.58;;
46613;SDS011;32338;50.430;6.806;2023-05-20T05:34:59;4.63;;;1.70;;
46613;SDS011;32338;50.430;6.806;2023-05-20T05:37:26;4.00;;;2.08;;
46613;SDS011;32338;50.430;6.806;2023-05-20T05:39:52;2.50;;;2.08;;
46613;SDS011;32338;50.430;6.806;2023-05-20T05:42:20;5.10;;;1.90;;
46613;SDS011;32338;50.430;6.806;2023-05-20T05:44:47;4.53;;;2.10;;
46613;SDS011;32338;50.430;6.806;2023-05-20T05:47:13;4.18;;;2.15;;
46613;SDS011;32338;50.430;6.806;2023-05-20T05:49:40;2.20;;;2.00;;
46613;SDS011;32338;50.430;6.806;2023-05-20T05:52:07;2.22;;;2.03;;
46613;SDS011;32338;50.430;6.806;2023-05-20T05:54:33;2.10;;;1.90;;
46613;SDS011;32338;50.430;6.806;2023-05-20T05:57:00;3.70;;;2.20;;
46613;SDS011;32338;50.430;6.806;2023-05-20T05:59:28;3.55;;;2.33;;
46613;SDS011;32338;50.430;6.806;2023-05-20T06:01:54;2.88;;;2.42;;
46613;SDS011;32338;50.430;6.806;2023-05-20T06:04:21;2.72;;;2.03;;
46613;SDS011;32338;50.430;6.806;2023-05-20T06:06:47;4.88;;;2.63;;
46613;SDS011;32338;50.430;6.806;2023-05-20T06:09:14;4.13;;;2.72;;
46613;SDS011;32338;50.430;6.806;2023-05-20T06:11:41;3.78;;;1.77;;
46613;SDS011;32338;50.430;6.806;2023-05-20T06:14:08;5.07;;;1.67;;
46613;SDS011;32338;50.430;6.806;2023-05-20T06:16:36;5.80;;;2.13;;
46613;SDS011;32338;50.430;6.806;2023-05-20T06:19:03;5.28;;;3.63;;
46613;SDS011;32338;50.430;6.806;2023-05-20T06:21:30;7.97;;;6.85;;
46613;SDS011;32338;50.430;6.806;2023-05-20T06:23:56;4.28;;;3.65;;
46613;SDS011;32338;50.430;6.806;2023-05-20T06:26:23;6.03;;;4.32;;
46613;SDS011;32338;50.430;6.806;2023-05-20T06:28:50;5.40;;;4.32;;
46613;SDS011;32338;50.430;6.806;2023-05-20T06:31:17;5.05;;;3.15;;
46613;SDS011;32338;50.430;6.806;2023-05-20T06:33:45;5.60;;;2.70;;
46613;SDS011;32338;50.430;6.806;2023-05-20T06:36:11;9.25;;;7.22;;
46613;SDS011;32338;50.430;6.806;2023-05-20T06:38:38;14.35;;;7.57;;
46613;SDS011;32338;50.430;6.806;2023-05-20T06:41:05;5.85;;;3.65;;
46613;SDS011;32338;50.430;6.806;2023-05-20T06:43:31;5.90;;;5.40;;
46613;SDS011;32338;50.430;6.806;2023-05-20T06:45:58;2.90;;;2.30;;
46613;SDS011;32338;50.430;6.806;2023-05-20T06:48:25;3.88;;;2.50;;
46613;SDS011;32338;50.430;6.806;2023-05-20T06:50:53;2.85;;;2.30;;
46613;SDS011;32338;50.430;6.806;2023-05-20T06:53:21;5.00;;;2.33;;
46613;SDS011;32338;50.430;6.806;2023-05-20T06:55:47;8.57;;;2.22;;
46613;SDS011;32338;50.430;6.806;2023-05-20T06:58:14;2.85;;;2.20;;
46613;SDS011;32338;50.430;6.806;2023-05-20T07:00:40;3.72;;;2.70;;
46613;SDS011;32338;50.430;6.806;2023-05-20T07:03:07;5.07;;;3.15;;
46613;SDS011;32338;50.430;6.806;2023-05-20T07:05:35;3.03;;;2.60;;
46613;SDS011;32338;50.430;6.806;2023-05-20T07:08:03;3.25;;;2.95;;
46613;SDS011;32338;50.430;6.806;2023-05-20T07:10:30;4.18;;;2.47;;
46613;SDS011;32338;50.430;6.806;2023-05-20T07:12:57;4.85;;;2.42;;
46613;SDS011;32338;50.430;6.806;2023-05-20T07:15:23;2.67;;;2.40;;
46613;SDS011;32338;50.430;6.806;2023-05-20T07:17:50;3.42;;;2.35;;
46613;SDS011;32338;50.430;6.806;2023-05-20T07:20:17;10.18;;;3.33;;
46613;SDS011;32338;50.430;6.806;2023-05-20T07:22:43;5.63;;;3.40;;
46613;SDS011;32338;50.430;6.806;2023-05-20T07:25:11;3.15;;;2.83;;
46613;SDS011;32338;50.430;6.806;2023-05-20T07:27:38;3.50;;;2.40;;
46613;SDS011;32338;50.430;6.806;2023-05-20T07:30:05;3.15;;;2.38;;
46613;SDS011;32338;50.430;6.806;2023-05-20T07:32:33;2.55;;;2.15;;
46613;SDS011;32338;50.430;6.806;2023-05-20T07:35:00;2.85;;;2.13;;
46613;SDS011;32338;50.430;6.806;2023-05-20T07:37:26;4.43;;;2.75;;
46613;SDS011;32338;50.430;6.806;2023-05-20T07:39:53;3.75;;;2.80;;
46613;SDS011;32338;50.430;6.806;2023-05-20T07:42:21;2.63;;;2.42;;
46613;SDS011;32338;50.430;6.806;2023-05-20T07:44:48;2.97;;;2.50;;
46613;SDS011;32338;50.430;6.806;2023-05-20T07:47:14;2.90;;;2.33;;
46613;SDS011;32338;50.430;6.806;2023-05-20T07:49:41;3.08;;;2.33;;
46613;SDS011;32338;50.430;6.806;2023-05-20T07:52:08;5.28;;;2.83;;
46613;SDS011;32338;50.430;6.806;2023-05-20T07:54:34;3.45;;;2.60;;
46613;SDS011;32338;50.430;6.806;2023-05-20T07:57:01;4.50;;;2.65;;
46613;SDS011;32338;50.430;6.806;2023-05-20T07:59:29;7.80;;;2.53;;
46613;SDS011;32338;50.430;6.806;2023-05-20T08:01:56;4.00;;;2.63;;
46613;SDS011;32338;50.430;6.806;2023-05-20T08:04:23;5.82;;;3.20;;
46613;SDS011;32338;50.430;6.806;2023-05-20T08:06:51;4.07;;;3.15;;
46613;SDS011;32338;50.430;6.806;2023-05-20T08:09:18;3.85;;;2.72;;
46613;SDS011;32338;50.430;6.806;2023-05-20T08:11:45;5.60;;;3.22;;
46613;SDS011;32338;50.430;6.806;2023-05-20T08:14:12;6.93;;;3.15;;
46613;SDS011;32338;50.430;6.806;2023-05-20T08:16:40;8.57;;;3.30;;
46613;SDS011;32338;50.430;6.806;2023-05-20T08:19:07;9.65;;;3.30;;
46613;SDS011;32338;50.430;6.806;2023-05-20T08:21:34;7.32;;;3.03;;
46613;SDS011;32338;50.430;6.806;2023-05-20T08:24:00;3.05;;;2.75;;
46613;SDS011;32338;50.430;6.806;2023-05-20T08:26:27;4.25;;;2.80;;
46613;SDS011;32338;50.430;6.806;2023-05-20T08:28:54;3.65;;;2.47;;
46613;SDS011;32338;50.430;6.806;2023-05-20T08:31:20;5.57;;;2.53;;
46613;SDS011;32338;50.430;6.806;2023-05-20T08:33:48;3.97;;;2.70;;
46613;SDS011;32338;50.430;6.806;2023-05-20T08:36:15;7.18;;;3.17;;
46613;SDS011;32338;50.430;6.806;2023-05-20T08:38:43;9.32;;;3.22;;
46613;SDS011;32338;50.430;6.806;2023-05-20T08:41:10;2.75;;;2.55;;
46613;SDS011;32338;50.430;6.806;2023-05-20T08:43:36;3.20;;;2.90;;
46613;SDS011;32338;50.430;6.806;2023-05-20T08:46:03;4.22;;;3.25;;
46613;SDS011;32338;50.430;6.806;2023-05-20T08:48:30;3.58;;;2.90;;
46613;SDS011;32338;50.430;6.806;2023-05-20T08:51:00;5.10;;;2.78;;
46613;SDS011;32338;50.430;6.806;2023-05-20T08:53:28;4.07;;;2.78;;
46613;SDS011;32338;50.430;6.806;2023-05-20T08:55:56;3.25;;;2.97;;
46613;SDS011;32338;50.430;6.806;2023-05-20T08:58:27;5.72;;;3.03;;
46613;SDS011;32338;50.430;6.806;2023-05-20T09:00:53;3.38;;;2.90;;
46613;SDS011;32338;50.430;6.806;2023-05-20T09:03:20;3.60;;;3.30;;
46613;SDS011;32338;50.430;6.806;2023-05-20T09:05:48;12.32;;;5.55;;
46613;SDS011;32338;50.430;6.806;2023-05-20T09:08:16;4.63;;;2.97;;
46613;SDS011;32338;50.430;6.806;2023-05-20T09:10:42;4.32;;;3.90;;
46613;SDS011;32338;50.430;6.806;2023-05-20T09:13:09;6.28;;;3.67;;
46613;SDS011;32338;50.430;6.806;2023-05-20T09:15:36;3.40;;;3.10;;
46613;SDS011;32338;50.430;6.806;2023-05-20T09:18:05;4.95;;;3.58;;
46613;SDS011;32338;50.430;6.806;2023-05-20T09:20:32;3.40;;;3.00;;
46613;SDS011;32338;50.430;6.806;2023-05-20T09:23:01;3.22;;;2.92;;
46613;SDS011;32338;50.430;6.806;2023-05-20T09:25:30;4.60;;;3.30;;
46613;SDS011;32338;50.430;6.806;2023-05-20T09:27:57;4.38;;;3.40;;
46613;SDS011;32338;50.430;6.806;2023-05-20T09:30:24;6.45;;;3.42;;
46613;SDS011;32338;50.430;6.806;2023-05-20T09:32:53;3.50;;;3.20;;
46613;SDS011;32338;50.430;6.806;2023-05-20T09:35:21;3.50;;;3.13;;
46613;SDS011;32338;50.430;6.806;2023-05-20T09:37:49;3.47;;;3.17;;
46613;SDS011;32338;50.430;6.806;2023-05-20T09:40:17;3.60;;;3.30;;
46613;SDS011;32338;50.430;6.806;2023-05-20T09:42:51;3.78;;;2.67;;
46613;SDS011;32338;50.430;6.806;2023-05-20T09:45:19;3.55;;;2.97;;
46613;SDS011;32338;50.430;6.806;2023-05-20T09:47:47;3.05;;;2.75;;
46613;SDS011;32338;50.430;6.806;2023-05-20T09:50:16;3.50;;;3.20;;
46613;SDS011;32338;50.430;6.806;2023-05-20T09:52:45;5.57;;;3.53;;
46613;SDS011;32338;50.430;6.806;2023-05-20T09:55:13;5.05;;;2.90;;
46613;SDS011;32338;50.430;6.806;2023-05-20T09:57:41;5.35;;;3.58;;
46613;SDS011;32338;50.430;6.806;2023-05-20T10:00:10;3.45;;;3.13;;
46613;SDS011;32338;50.430;6.806;2023-05-20T10:02:40;3.03;;;2.80;;
46613;SDS011;32338;50.430;6.806;2023-05-20T10:05:10;4.18;;;3.60;;
46613;SDS011;32338;50.430;6.806;2023-05-20T10:07:50;3.53;;;3.22;;
46613;SDS011;32338;50.430;6.806;2023-05-20T10:10:36;4.63;;;3.72;;
46613;SDS011;32338;50.430;6.806;2023-05-20T10:13:12;3.53;;;3.22;;
46613;SDS011;32338;50.430;6.806;2023-05-20T10:15:50;4.78;;;3.33;;
46613;SDS011;32338;50.430;6.806;2023-05-20T10:18:28;4.47;;;3.28;;
46613;SDS011;32338;50.430;6.806;2023-05-20T10:21:02;8.25;;;3.38;;
46613;SDS011;32338;50.430;6.806;2023-05-20T10:23:29;3.83;;;3.45;;
46613;SDS011;32338;50.430;6.806;2023-05-20T10:25:57;3.78;;;3.20;;
46613;SDS011;32338;50.430;6.806;2023-05-20T10:28:27;6.65;;;3.17;;
46613;SDS011;32338;50.430;6.806;2023-05-20T10:30:56;4.63;;;3.60;;
46613;SDS011;32338;50.430;6.806;2023-05-20T10:33:23;5.28;;;3.25;;
46613;SDS011;32338;50.430;6.806;2023-05-20T10:35:51;4.60;;;3.25;;
46613;SDS011;32338;50.430;6.806;2023-05-20T10:38:18;6.47;;;3.70;;
46613;SDS011;32338;50.430;6.806;2023-05-20T10:40:46;5.13;;;3.92;;
46613;SDS011;32338;50.430;6.806;2023-05-20T10:43:13;3.38;;;3.10;;
46613;SDS011;32338;50.430;6.806;2023-05-20T10:45:48;3.65;;;3.20;;
46613;SDS011;32338;50.430;6.806;2023-05-20T10:48:26;3.70;;;3.40;;
46613;SDS011;32338;50.430;6.806;2023-05-20T10:50:54;8.65;;;3.45;;
46613;SDS011;32338;50.430;6.806;2023-05-20T10:53:22;3.30;;;3.00;;
46613;SDS011;32338;50.430;6.806;2023-05-20T10:55:50;3.45;;;2.50;;
46613;SDS011;32338;50.430;6.806;2023-05-20T10:58:18;5.65;;;2.97;;
46613;SDS011;32338;50.430;6.806;2023-05-20T11:00:46;3.30;;;3.00;;
46613;SDS011;32338;50.430;6.806;2023-05-20T11:03:14;2.83;;;2.63;;
46613;SDS011;32338;50.430;6.806;2023-05-20T11:05:43;3.47;;;2.65;;
46613;SDS011;32338;50.430;6.806;2023-05-20T11:08:10;3.00;;;2.80;;
46613;SDS011;32338;50.430;6.806;2023-05-20T11:10:37;3.28;;;2.80;;
46613;SDS011;32338;50.430;6.806;2023-05-20T11:13:04;3.95;;;3.58;;
46613;SDS011;32338;50.430;6.806;2023-05-20T11:15:33;4.15;;;2.80;;
46613;SDS011;32338;50.430;6.806;2023-05-20T11:18:01;2.95;;;2.40;;
46613;SDS011;32338;50.430;6.806;2023-05-20T11:20:30;3.28;;;2.70;;
46613;SDS011;32338;50.430;6.806;2023-05-20T11:23:00;2.88;;;2.55;;
46613;SDS011;32338;50.430;6.806;2023-05-20T11:25:28;6.15;;;2.90;;
46613;SDS011;32338;50.430;6.806;2023-05-20T11:27:55;4.38;;;2.60;;
46613;SDS011;32338;50.430;6.806;2023-05-20T11:30:22;2.80;;;2.60;;
46613;SDS011;32338;50.430;6.806;2023-05-20T11:32:55;2.55;;;2.33;;
46613;SDS011;32338;50.430;6.806;2023-05-20T11:35:23;2.75;;;2.50;;
46613;SDS011;32338;50.430;6.806;2023-05-20T11:37:54;3.67;;;2.90;;
46613;SDS011;32338;50.430;6.806;2023-05-20T11:40:24;4.15;;;2.88;;
46613;SDS011;32338;50.430;6.806;2023-05-20T11:42:52;6.80;;;2.53;;
46613;SDS011;32338;50.430;6.806;2023-05-20T11:45:20;8.38;;;3.10;;
46613;SDS011;32338;50.430;6.806;2023-05-20T11:47:57;5.00;;;2.38;;
46613;SDS011;32338;50.430;6.806;2023-05-20T11:50:23;2.72;;;2.53;;
46613;SDS011;32338;50.430;6.806;2023-05-20T11:52:54;5.93;;;2.63;;
46613;SDS011;32338;50.430;6.806;2023-05-20T11:55:24;2.88;;;2.67;;
46613;SDS011;32338;50.430;6.806;2023-05-20T11:57:50;2.90;;;2.60;;
46613;SDS011;32338;50.430;6.806;2023-05-20T12:00:17;2.85;;;2.53;;
46613;SDS011;32338;50.430;6.806;2023-05-20T12:02:44;4.35;;;3.40;;
46613;SDS011;32338;50.430;6.806;2023-05-20T12:05:10;4.60;;;3.20;;
46613;SDS011;32338;50.430;6.806;2023-05-20T12:07:37;3.13;;;2.92;;
46613;SDS011;32338;50.430;6.806;2023-05-20T12:10:04;4.53;;;3.45;;
46613;SDS011;32338;50.430;6.806;2023-05-20T12:12:33;3.65;;;2.75;;
46613;SDS011;32338;50.430;6.806;2023-05-20T12:15:00;3.90;;;3.13;;
46613;SDS011;32338;50.430;6.806;2023-05-20T12:17:27;3.65;;;2.90;;
46613;SDS011;32338;50.430;6.806;2023-05-20T12:19:53;3.33;;;2.72;;
46613;SDS011;32338;50.430;6.806;2023-05-20T12:22:20;6.25;;;3.33;;
46613;SDS011;32338;50.430;6.806;2023-05-20T12:24:46;3.38;;;3.08;;
46613;SDS011;32338;50.430;6.806;2023-05-20T12:27:13;4.30;;;2.95;;
46613;SDS011;32338;50.430;6.806;2023-05-20T12:29:41;3.00;;;2.80;;
46613;SDS011;32338;50.430;6.806;2023-05-20T12:32:07;5.38;;;3.08;;
46613;SDS011;32338;50.430;6.806;2023-05-20T12:34:34;6.20;;;3.20;;
46613;SDS011;32338;50.430;6.806;2023-05-20T12:37:01;3.40;;;3.10;;
46613;SDS011;32338;50.430;6.806;2023-05-20T12:39:27;4.32;;;3.60;;
46613;SDS011;32338;50.430;6.806;2023-05-20T12:41:54;2.90;;;2.70;;
46613;SDS011;32338;50.430;6.806;2023-05-20T12:44:20;4.07;;;2.85;;
46613;SDS011;32338;50.430;6.806;2023-05-20T12:46:48;3.80;;;3.42;;
46613;SDS011;32338;50.430;6.806;2023-05-20T12:49:15;3.72;;;3.42;;
46613;SDS011;32338;50.430;6.806;2023-05-20T12:51:41;4.90;;;2.90;;
46613;SDS011;32338;50.430;6.806;2023-05-20T12:54:08;5.30;;;3.25;;
46613;SDS011;32338;50.430;6.806;2023-05-20T12:56:34;4.55;;;2.97;;
46613;SDS011;32338;50.430;6.806;2023-05-20T12:59:01;3.85;;;3.55;;
46613;SDS011;32338;50.430;6.806;2023-05-20T13:01:27;3.70;;;3.40;;
46613;SDS011;32338;50.430;6.806;2023-05-20T13:03:55;3.13;;;2.78;;
46613;SDS011;32338;50.430;6.806;2023-05-20T13:06:22;3.78;;;2.95;;
46613;SDS011;32338;50.430;6.806;2023-05-20T13:08:49;5.00;;;3.40;;
46613;SDS011;32338;50.430;6.806;2023-05-20T13:11:15;4.53;;;3.13;;
46613;SDS011;32338;50.430;6.806;2023-05-20T13:13:42;6.43;;;3.00;;
46613;SDS011;32338;50.430;6.806;2023-05-20T13:16:08;3.75;;;3.47;;
46613;SDS011;32338;50.430;6.806;2023-05-20T13:18:35;5.03;;;3.42;;
46613;SDS011;32338;50.430;6.806;2023-05-20T13:21:03;3.95;;;3.65;;
46613;SDS011;32338;50.430;6.806;2023-05-20T13:23:30;8.88;;;4.72;;
46613;SDS011;32338;50.430;6.806;2023-05-20T13:25:57;5.93;;;4.47;;
46613;SDS011;32338;50.430;6.806;2023-05-20T13:28:23;4.15;;;3.75;;
46613;SDS011;32338;50.430;6.806;2023-05-20T13:30:50;5.13;;;4.30;;
46613;SDS011;32338;50.430;6.806;2023-05-20T13:33:16;4.72;;;4.43;;
46613;SDS011;32338;50.430;6.806;2023-05-20T13:35:43;3.88;;;3.58;;
46613;SDS011;32338;50.430;6.806;2023-05-20T13:38:11;4.45;;;4.10;;
46613;SDS011;32338;50.430;6.806;2023-05-20T13:40:38;5.45;;;4.18;;
46613;SDS011;32338;50.430;6.806;2023-05-20T13:43:04;5.05;;;3.90;;
46613;SDS011;32338;50.430;6.806;2023-05-20T13:45:31;5.35;;;3.95;;
46613;SDS011;32338;50.430;6.806;2023-05-20T13:47:57;3.97;;;3.67;;
46613;SDS011;32338;50.430;6.806;2023-05-20T13:50:24;5.57;;;3.80;;
46613;SDS011;32338;50.430;6.806;2023-05-20T13:52:51;8.02;;;4.15;;
46613;SDS011;32338;50.430;6.806;2023-05-20T13:55:19;5.55;;;4.35;;
46613;SDS011;32338;50.430;6.806;2023-05-20T13:57:45;5.22;;;3.95;;
46613;SDS011;32338;50.430;6.806;2023-05-20T14:00:12;6.18;;;4.20;;
46613;SDS011;32338;50.430;6.806;2023-05-20T14:02:40;4.63;;;4.20;;
46613;SDS011;32338;50.430;6.806;2023-05-20T14:05:06;6.40;;;3.70;;
46613;SDS011;32338;50.430;6.806;2023-05-20T14:07:33;4.50;;;4.20;;
46613;SDS011;32338;50.430;6.806;2023-05-20T14:10:00;3.88;;;3.47;;
46613;SDS011;32338;50.430;6.806;2023-05-20T14:12:27;4.13;;;3.80;;
46613;SDS011;32338;50.430;6.806;2023-05-20T14:14:54;4.10;;;3.65;;
46613;SDS011;32338;50.430;6.806;2023-05-20T14:17:21;4.90;;;3.65;;
46613;SDS011;32338;50.430;6.806;2023-05-20T14:19:48;4.47;;;4.10;;
46613;SDS011;32338;50.430;6.806;2023-05-20T14:22:14;4.53;;;3.75;;
46613;SDS011;32338;50.430;6.806;2023-05-20T14:24:41;6.45;;;3.78;;
46613;SDS011;32338;50.430;6.806;2023-05-20T14:27:08;4.10;;;3.70;;
46613;SDS011;32338;50.430;6.806;2023-05-20T14:29:36;5.50;;;3.58;;
46613;SDS011;32338;50.430;6.806;2023-05-20T14:32:03;4.28;;;3.95;;
46613;SDS011;32338;50.430;6.806;2023-05-20T14:34:30;4.43;;;3.92;;
46613;SDS011;32338;50.430;6.806;2023-05-20T14:36:57;4.53;;;3.95;;
46613;SDS011;32338;50.430;6.806;2023-05-20T14:39:28;4.30;;;4.00;;
46613;SDS011;32338;50.430;6.806;2023-05-20T14:41:54;3.65;;;3.35;;
46613;SDS011;32338;50.430;6.806;2023-05-20T14:44:21;4.30;;;3.50;;
46613;SDS011;32338;50.430;6.806;2023-05-20T14:46:49;4.43;;;4.03;;
46613;SDS011;32338;50.430;6.806;2023-05-20T14:49:15;5.38;;;3.70;;